sensor_id;sensor_type;location;lat;lon;timestamp;temperature;humidity
55693;DHT22;41590;53.366;5.212;2023-02-15T00:01:51;4.20;99.90
55693;DHT22;41590;53.366;5.212;2023-02-15T00:04:20;2.60;99.90
55693;DHT22;41590;53.366;5.212;2023-02-15T00:06:48;4.60;99.90
55693;DHT22;41590;53.366;5.212;2023-02-15T00:09:16;2.50;99.90
55693;DHT22;41590;53.366;5.212;2023-02-15T00:15:23;3.80;99.90
55693;DHT22;41590;53.366;5.212;2023-02-15T00:18:01;4.80;99.90
55693;DHT22;41590;53.366;5.212;2023-02-15T00:20:26;4.70;99.90
55693;DHT22;41590;53.366;5.212;2023-02-15T00:22:52;4.80;99.90
55693;DHT22;41590;53.366;5.212;2023-02-15T00:25:18;5.00;99.90
55693;DHT22;41590;53.366;5.212;2023-02-15T00:27:44;2.60;99.90
55693;DHT22;41590;53.366;5.212;2023-02-15T00:30:12;2.70;99.90
55693;DHT22;41590;53.366;5.212;2023-02-15T00:32:40;2.70;99.90
55693;DHT22;41590;53.366;5.212;2023-02-15T00:35:07;3.00;99.90
55693;DHT22;41590;53.366;5.212;2023-02-15T00:37:36;4.60;99.90
55693;DHT22;41590;53.366;5.212;2023-02-15T00:40:03;2.30;99.90
55693;DHT22;41590;53.366;5.212;2023-02-15T00:42:34;2.50;99.90
55693;DHT22;41590;53.366;5.212;2023-02-15T00:45:02;2.30;99.90
55693;DHT22;41590;53.366;5.212;2023-02-15T00:47:28;2.30;99.90
55693;DHT22;41590;53.366;5.212;2023-02-15T00:49:53;3.40;99.90
55693;DHT22;41590;53.366;5.212;2023-02-15T00:52:20;5.10;99.90
55693;DHT22;41590;53.366;5.212;2023-02-15T00:54:49;5.00;99.90
55693;DHT22;41590;53.366;5.212;2023-02-15T00:57:15;2.20;99.90
55693;DHT22;41590;53.366;5.212;2023-02-15T00:59:46;2.40;99.90
55693;DHT22;41590;53.366;5.212;2023-02-15T01:02:19;3.30;99.90
55693;DHT22;41590;53.366;5.212;2023-02-15T01:04:47;3.50;99.90
55693;DHT22;41590;53.366;5.212;2023-02-15T01:07:15;2.20;99.90
55693;DHT22;41590;53.366;5.212;2023-02-15T01:09:42;2.20;99.90
55693;DHT22;41590;53.366;5.212;2023-02-15T01:12:09;2.20;99.90
55693;DHT22;41590;53.366;5.212;2023-02-15T01:14:38;4.30;99.90
55693;DHT22;41590;53.366;5.212;2023-02-15T01:17:08;4.20;99.90
55693;DHT22;41590;53.366;5.212;2023-02-15T01:19:43;3.70;99.90
55693;DHT22;41590;53.366;5.212;2023-02-15T01:22:09;4.40;99.90
55693;DHT22;41590;53.366;5.212;2023-02-15T01:24:36;2.10;99.90
55693;DHT22;41590;53.366;5.212;2023-02-15T01:27:03;2.40;99.90
55693;DHT22;41590;53.366;5.212;2023-02-15T01:29:29;2.20;99.90
55693;DHT22;41590;53.366;5.212;2023-02-15T01:31:55;3.30;99.90
55693;DHT22;41590;53.366;5.212;2023-02-15T01:34:31;4.20;99.90
55693;DHT22;41590;53.366;5.212;2023-02-15T01:36:59;3.80;99.90
55693;DHT22;41590;53.366;5.212;2023-02-15T01:39:32;2.00;99.90
55693;DHT22;41590;53.366;5.212;2023-02-15T01:41:59;2.30;99.90
55693;DHT22;41590;53.366;5.212;2023-02-15T01:48:04;2.20;99.90
55693;DHT22;41590;53.366;5.212;2023-02-15T01:54:18;2.00;99.90
55693;DHT22;41590;53.366;5.212;2023-02-15T01:56:48;1.80;99.90
55693;DHT22;41590;53.366;5.212;2023-02-15T01:59:22;1.80;99.90
55693;DHT22;41590;53.366;5.212;2023-02-15T02:01:51;2.60;99.90
55693;DHT22;41590;53.366;5.212;2023-02-15T02:04:19;4.00;99.90
55693;DHT22;41590;53.366;5.212;2023-02-15T02:06:58;3.40;99.90
55693;DHT22;41590;53.366;5.212;2023-02-15T02:09:27;2.50;99.90
55693;DHT22;41590;53.366;5.212;2023-02-15T02:12:01;4.10;99.90
55693;DHT22;41590;53.366;5.212;2023-02-15T02:14:28;2.40;99.90
55693;DHT22;41590;53.366;5.212;2023-02-15T02:17:22;3.70;99.90
55693;DHT22;41590;53.366;5.212;2023-02-15T02:20:26;3.90;99.90
55693;DHT22;41590;53.366;5.212;2023-02-15T02:34:31;3.40;99.90
55693;DHT22;41590;53.366;5.212;2023-02-15T02:37:24;3.30;99.90
55693;DHT22;41590;53.366;5.212;2023-02-15T02:40:16;2.90;99.90
55693;DHT22;41590;53.366;5.212;2023-02-15T02:43:35;1.80;99.90
55693;DHT22;41590;53.366;5.212;2023-02-15T02:46:05;1.70;99.90
55693;DHT22;41590;53.366;5.212;2023-02-15T02:48:33;3.00;99.90
55693;DHT22;41590;53.366;5.212;2023-02-15T02:51:01;3.60;99.90
55693;DHT22;41590;53.366;5.212;2023-02-15T02:53:35;3.50;99.90
55693;DHT22;41590;53.366;5.212;2023-02-15T02:56:20;3.70;99.90
55693;DHT22;41590;53.366;5.212;2023-02-15T02:58:59;1.60;99.90
55693;DHT22;41590;53.366;5.212;2023-02-15T03:04:37;1.60;99.90
55693;DHT22;41590;53.366;5.212;2023-02-15T03:07:08;3.30;99.90
55693;DHT22;41590;53.366;5.212;2023-02-15T03:09:45;3.70;99.90
55693;DHT22;41590;53.366;5.212;2023-02-15T03:12:28;3.70;99.90
55693;DHT22;41590;53.366;5.212;2023-02-15T03:15:06;1.50;99.90
55693;DHT22;41590;53.366;5.212;2023-02-15T03:17:40;2.20;99.90
55693;DHT22;41590;53.366;5.212;2023-02-15T03:20:15;1.60;99.90
55693;DHT22;41590;53.366;5.212;2023-02-15T03:22:49;2.40;99.90
55693;DHT22;41590;53.366;5.212;2023-02-15T03:25:32;2.40;99.90
55693;DHT22;41590;53.366;5.212;2023-02-15T03:28:10;1.60;99.90
55693;DHT22;41590;53.366;5.212;2023-02-15T03:30:38;2.20;99.90
55693;DHT22;41590;53.366;5.212;2023-02-15T03:33:07;1.70;99.90
55693;DHT22;41590;53.366;5.212;2023-02-15T03:36:03;2.10;99.90
55693;DHT22;41590;53.366;5.212;2023-02-15T03:38:36;3.50;99.90
55693;DHT22;41590;53.366;5.212;2023-02-15T03:41:11;3.60;99.90
55693;DHT22;41590;53.366;5.212;2023-02-15T03:44:02;1.90;99.90
55693;DHT22;41590;53.366;5.212;2023-02-15T03:49:04;3.40;99.90
55693;DHT22;41590;53.366;5.212;2023-02-15T03:51:36;2.50;99.90
55693;DHT22;41590;53.366;5.212;2023-02-15T03:54:12;3.60;99.90
55693;DHT22;41590;53.366;5.212;2023-02-15T03:57:01;3.40;99.90
55693;DHT22;41590;53.366;5.212;2023-02-15T04:05:51;2.10;99.90
55693;DHT22;41590;53.366;5.212;2023-02-15T04:08:25;3.40;99.90
55693;DHT22;41590;53.366;5.212;2023-02-15T04:11:12;3.20;99.90
55693;DHT22;41590;53.366;5.212;2023-02-15T04:13:43;2.70;99.90
55693;DHT22;41590;53.366;5.212;2023-02-15T04:16:34;3.40;99.90
55693;DHT22;41590;53.366;5.212;2023-02-15T04:19:13;3.20;99.90
55693;DHT22;41590;53.366;5.212;2023-02-15T04:21:58;2.60;99.90
55693;DHT22;41590;53.366;5.212;2023-02-15T04:25:10;3.20;99.90
55693;DHT22;41590;53.366;5.212;2023-02-15T04:27:50;3.10;99.90
55693;DHT22;41590;53.366;5.212;2023-02-15T04:30:24;2.40;99.90
55693;DHT22;41590;53.366;5.212;2023-02-15T04:32:55;1.30;99.90
55693;DHT22;41590;53.366;5.212;2023-02-15T04:35:27;2.00;99.90
55693;DHT22;41590;53.366;5.212;2023-02-15T04:37:57;3.70;99.90
55693;DHT22;41590;53.366;5.212;2023-02-15T04:40:27;1.30;99.90
55693;DHT22;41590;53.366;5.212;2023-02-15T04:42:53;1.30;99.90
55693;DHT22;41590;53.366;5.212;2023-02-15T04:45:25;1.70;99.90
55693;DHT22;41590;53.366;5.212;2023-02-15T04:48:01;3.10;99.90
55693;DHT22;41590;53.366;5.212;2023-02-15T04:50:44;1.70;99.90
55693;DHT22;41590;53.366;5.212;2023-02-15T04:53:10;1.30;99.90
55693;DHT22;41590;53.366;5.212;2023-02-15T04:55:37;1.60;99.90
55693;DHT22;41590;53.366;5.212;2023-02-15T04:58:07;1.30;99.90
55693;DHT22;41590;53.366;5.212;2023-02-15T05:00:35;1.90;99.90
55693;DHT22;41590;53.366;5.212;2023-02-15T05:06:27;1.30;99.90
55693;DHT22;41590;53.366;5.212;2023-02-15T05:08:55;1.30;99.90
55693;DHT22;41590;53.366;5.212;2023-02-15T05:11:22;3.40;99.90
55693;DHT22;41590;53.366;5.212;2023-02-15T05:13:47;3.70;99.90
55693;DHT22;41590;53.366;5.212;2023-02-15T05:16:14;2.90;99.90
55693;DHT22;41590;53.366;5.212;2023-02-15T05:18:47;1.50;99.90
55693;DHT22;41590;53.366;5.212;2023-02-15T05:21:29;1.40;99.90
55693;DHT22;41590;53.366;5.212;2023-02-15T05:23:55;3.30;99.90
55693;DHT22;41590;53.366;5.212;2023-02-15T05:26:26;2.20;99.90
55693;DHT22;41590;53.366;5.212;2023-02-15T05:29:10;2.30;99.90
55693;DHT22;41590;53.366;5.212;2023-02-15T05:31:37;3.50;99.90
55693;DHT22;41590;53.366;5.212;2023-02-15T05:34:05;1.60;99.90
55693;DHT22;41590;53.366;5.212;2023-02-15T05:36:39;1.70;99.90
55693;DHT22;41590;53.366;5.212;2023-02-15T05:39:08;1.60;99.90
55693;DHT22;41590;53.366;5.212;2023-02-15T05:41:36;2.00;99.90
55693;DHT22;41590;53.366;5.212;2023-02-15T05:44:03;2.00;99.90
55693;DHT22;41590;53.366;5.212;2023-02-15T05:46:28;2.80;99.90
55693;DHT22;41590;53.366;5.212;2023-02-15T05:48:56;1.60;99.90
55693;DHT22;41590;53.366;5.212;2023-02-15T05:51:24;1.80;99.90
55693;DHT22;41590;53.366;5.212;2023-02-15T05:53:55;3.10;99.90
55693;DHT22;41590;53.366;5.212;2023-02-15T05:56:21;3.70;99.90
55693;DHT22;41590;53.366;5.212;2023-02-15T05:58:52;3.70;99.90
55693;DHT22;41590;53.366;5.212;2023-02-15T06:01:19;1.80;99.90
55693;DHT22;41590;53.366;5.212;2023-02-15T06:03:49;4.00;99.90
55693;DHT22;41590;53.366;5.212;2023-02-15T06:09:55;1.70;99.90
55693;DHT22;41590;53.366;5.212;2023-02-15T06:12:21;3.60;99.90
55693;DHT22;41590;53.366;5.212;2023-02-15T06:14:50;2.00;99.90
55693;DHT22;41590;53.366;5.212;2023-02-15T06:17:17;3.20;99.90
55693;DHT22;41590;53.366;5.212;2023-02-15T06:19:43;1.90;99.90
55693;DHT22;41590;53.366;5.212;2023-02-15T06:22:15;3.20;99.90
55693;DHT22;41590;53.366;5.212;2023-02-15T06:24:48;3.20;99.90
55693;DHT22;41590;53.366;5.212;2023-02-15T06:27:13;1.70;99.90
55693;DHT22;41590;53.366;5.212;2023-02-15T06:29:56;3.60;99.90
55693;DHT22;41590;53.366;5.212;2023-02-15T06:32:21;3.80;99.90
55693;DHT22;41590;53.366;5.212;2023-02-15T06:34:47;1.90;99.90
55693;DHT22;41590;53.366;5.212;2023-02-15T06:37:23;2.30;99.90
55693;DHT22;41590;53.366;5.212;2023-02-15T06:39:57;1.90;99.90
55693;DHT22;41590;53.366;5.212;2023-02-15T06:42:37;2.40;99.90
55693;DHT22;41590;53.366;5.212;2023-02-15T06:48:37;2.00;99.90
55693;DHT22;41590;53.366;5.212;2023-02-15T06:51:24;2.10;99.90
55693;DHT22;41590;53.366;5.212;2023-02-15T06:54:09;3.20;99.90
55693;DHT22;41590;53.366;5.212;2023-02-15T06:57:04;2.20;99.90
55693;DHT22;41590;53.366;5.212;2023-02-15T06:59:42;1.60;99.90
55693;DHT22;41590;53.366;5.212;2023-02-15T07:02:23;3.30;99.90
55693;DHT22;41590;53.366;5.212;2023-02-15T07:04:51;3.70;99.90
55693;DHT22;41590;53.366;5.212;2023-02-15T07:07:42;2.90;99.90
55693;DHT22;41590;53.366;5.212;2023-02-15T07:10:08;3.60;99.90
55693;DHT22;41590;53.366;5.212;2023-02-15T07:13:01;1.70;99.90
55693;DHT22;41590;53.366;5.212;2023-02-15T07:18:47;1.90;99.90
55693;DHT22;41590;53.366;5.212;2023-02-15T07:21:24;2.60;99.90
55693;DHT22;41590;53.366;5.212;2023-02-15T07:23:59;2.00;99.90
55693;DHT22;41590;53.366;5.212;2023-02-15T07:34:14;3.90;99.90
55693;DHT22;41590;53.366;5.212;2023-02-15T08:57:50;5.90;99.90
55693;DHT22;41590;53.366;5.212;2023-02-15T09:00:54;4.00;99.90
55693;DHT22;41590;53.366;5.212;2023-02-15T10:22:33;4.30;99.90
55693;DHT22;41590;53.366;5.212;2023-02-15T11:12:29;7.90;99.90
55693;DHT22;41590;53.366;5.212;2023-02-15T11:19:08;8.00;99.90
55693;DHT22;41590;53.366;5.212;2023-02-15T11:21:55;8.10;99.90
55693;DHT22;41590;53.366;5.212;2023-02-15T11:24:56;7.90;99.90
55693;DHT22;41590;53.366;5.212;2023-02-15T11:27:30;8.20;99.90
55693;DHT22;41590;53.366;5.212;2023-02-15T11:30:14;8.30;99.90
55693;DHT22;41590;53.366;5.212;2023-02-15T11:32:52;8.60;99.90
55693;DHT22;41590;53.366;5.212;2023-02-15T11:35:43;8.30;99.90
55693;DHT22;41590;53.366;5.212;2023-02-15T11:38:32;8.10;99.90
55693;DHT22;41590;53.366;5.212;2023-02-15T11:41:12;8.50;99.90
55693;DHT22;41590;53.366;5.212;2023-02-15T11:43:59;8.30;99.90
55693;DHT22;41590;53.366;5.212;2023-02-15T11:46:29;8.40;99.90
55693;DHT22;41590;53.366;5.212;2023-02-15T11:49:01;8.50;99.90
55693;DHT22;41590;53.366;5.212;2023-02-15T11:51:31;8.50;99.90
55693;DHT22;41590;53.366;5.212;2023-02-15T11:53:56;8.40;99.90
55693;DHT22;41590;53.366;5.212;2023-02-15T11:56:30;8.40;99.90
55693;DHT22;41590;53.366;5.212;2023-02-15T11:59:26;8.00;99.90
55693;DHT22;41590;53.366;5.212;2023-02-15T12:01:54;8.30;99.90
55693;DHT22;41590;53.366;5.212;2023-02-15T12:04:38;8.50;99.90
55693;DHT22;41590;53.366;5.212;2023-02-15T12:07:40;8.40;99.90
55693;DHT22;41590;53.366;5.212;2023-02-15T12:13:30;8.40;99.90
55693;DHT22;41590;53.366;5.212;2023-02-15T12:16:21;8.50;99.90
55693;DHT22;41590;53.366;5.212;2023-02-15T12:18:58;8.30;99.90
55693;DHT22;41590;53.366;5.212;2023-02-15T12:21:34;8.30;99.90
55693;DHT22;41590;53.366;5.212;2023-02-15T12:24:43;8.30;99.90
55693;DHT22;41590;53.366;5.212;2023-02-15T12:27:33;8.20;99.90
55693;DHT22;41590;53.366;5.212;2023-02-15T12:30:35;8.00;99.90
55693;DHT22;41590;53.366;5.212;2023-02-15T12:43:27;8.50;99.90
55693;DHT22;41590;53.366;5.212;2023-02-15T12:46:25;8.40;99.90
55693;DHT22;41590;53.366;5.212;2023-02-15T12:49:24;8.30;99.90
55693;DHT22;41590;53.366;5.212;2023-02-15T12:52:00;8.20;99.90
55693;DHT22;41590;53.366;5.212;2023-02-15T12:54:41;8.30;99.90
55693;DHT22;41590;53.366;5.212;2023-02-15T12:57:34;7.90;99.90
55693;DHT22;41590;53.366;5.212;2023-02-15T13:00:26;8.30;99.90
55693;DHT22;41590;53.366;5.212;2023-02-15T13:03:18;8.10;99.90
55693;DHT22;41590;53.366;5.212;2023-02-15T13:06:04;7.90;99.90
55693;DHT22;41590;53.366;5.212;2023-02-15T13:19:26;7.80;99.90
55693;DHT22;41590;53.366;5.212;2023-02-15T13:25:47;8.00;99.90
55693;DHT22;41590;53.366;5.212;2023-02-15T13:28:18;7.90;99.90
55693;DHT22;41590;53.366;5.212;2023-02-15T13:31:07;8.00;99.90
55693;DHT22;41590;53.366;5.212;2023-02-15T13:41:07;8.20;99.90
55693;DHT22;41590;53.366;5.212;2023-02-15T13:52:51;7.80;99.90
55693;DHT22;41590;53.366;5.212;2023-02-15T13:55:52;7.60;99.90
55693;DHT22;41590;53.366;5.212;2023-02-15T14:15:44;7.60;99.90
55693;DHT22;41590;53.366;5.212;2023-02-15T14:27:12;7.70;99.90
55693;DHT22;41590;53.366;5.212;2023-02-15T14:29:57;7.80;99.90
55693;DHT22;41590;53.366;5.212;2023-02-15T14:32:54;7.60;99.90
55693;DHT22;41590;53.366;5.212;2023-02-15T14:35:27;7.60;99.90
55693;DHT22;41590;53.366;5.212;2023-02-15T14:38:32;7.50;99.90
55693;DHT22;41590;53.366;5.212;2023-02-15T14:41:24;7.60;99.90
55693;DHT22;41590;53.366;5.212;2023-02-15T14:47:45;7.70;99.90
55693;DHT22;41590;53.366;5.212;2023-02-15T14:50:56;7.60;99.90
55693;DHT22;41590;53.366;5.212;2023-02-15T14:53:59;7.50;99.90
55693;DHT22;41590;53.366;5.212;2023-02-15T14:56:45;7.10;99.90
55693;DHT22;41590;53.366;5.212;2023-02-15T14:59:58;7.50;99.90
55693;DHT22;41590;53.366;5.212;2023-02-15T15:02:55;7.40;99.90
55693;DHT22;41590;53.366;5.212;2023-02-15T15:08:37;7.50;99.90
55693;DHT22;41590;53.366;5.212;2023-02-15T15:14:07;7.30;99.90
55693;DHT22;41590;53.366;5.212;2023-02-15T15:16:59;7.90;99.90
55693;DHT22;41590;53.366;5.212;2023-02-15T15:20:46;7.30;99.90
55693;DHT22;41590;53.366;5.212;2023-02-15T15:49:47;7.10;99.90
55693;DHT22;41590;53.366;5.212;2023-02-15T15:52:53;7.40;99.90
55693;DHT22;41590;53.366;5.212;2023-02-15T15:55:46;7.00;99.90
55693;DHT22;41590;53.366;5.212;2023-02-15T15:58:54;7.30;99.90
55693;DHT22;41590;53.366;5.212;2023-02-15T16:01:39;7.50;99.90
55693;DHT22;41590;53.366;5.212;2023-02-15T16:10:16;7.00;99.90
55693;DHT22;41590;53.366;5.212;2023-02-15T16:12:51;6.80;99.90
55693;DHT22;41590;53.366;5.212;2023-02-15T16:15:25;6.40;99.90
55693;DHT22;41590;53.366;5.212;2023-02-15T16:17:56;6.50;99.90
55693;DHT22;41590;53.366;5.212;2023-02-15T16:20:52;6.30;99.90
55693;DHT22;41590;53.366;5.212;2023-02-15T16:49:24;6.20;99.90
55693;DHT22;41590;53.366;5.212;2023-02-15T16:52:10;6.20;99.90
55693;DHT22;41590;53.366;5.212;2023-02-15T16:58:16;5.70;99.90
55693;DHT22;41590;53.366;5.212;2023-02-15T17:00:42;5.50;99.90
55693;DHT22;41590;53.366;5.212;2023-02-15T17:16:50;5.60;99.90
55693;DHT22;41590;53.366;5.212;2023-02-15T17:22:58;6.00;99.90
55693;DHT22;41590;53.366;5.212;2023-02-15T17:25:39;5.30;99.90
55693;DHT22;41590;53.366;5.212;2023-02-15T17:28:37;5.40;99.90
55693;DHT22;41590;53.366;5.212;2023-02-15T17:31:14;6.20;99.90
55693;DHT22;41590;53.366;5.212;2023-02-15T17:33:52;5.30;99.90
55693;DHT22;41590;53.366;5.212;2023-02-15T17:36:29;5.40;99.90
55693;DHT22;41590;53.366;5.212;2023-02-15T17:39:06;6.10;99.90
55693;DHT22;41590;53.366;5.212;2023-02-15T17:41:51;5.40;99.90
55693;DHT22;41590;53.366;5.212;2023-02-15T17:44:32;6.10;99.90
55693;DHT22;41590;53.366;5.212;2023-02-15T17:47:03;6.10;99.90
55693;DHT22;41590;53.366;5.212;2023-02-15T17:49:29;5.70;99.90
55693;DHT22;41590;53.366;5.212;2023-02-15T17:52:32;6.20;99.90
55693;DHT22;41590;53.366;5.212;2023-02-15T17:55:15;5.20;99.90
55693;DHT22;41590;53.366;5.212;2023-02-15T17:58:26;6.00;99.90
55693;DHT22;41590;53.366;5.212;2023-02-15T18:01:02;5.20;99.90
55693;DHT22;41590;53.366;5.212;2023-02-15T18:03:50;5.80;99.90
55693;DHT22;41590;53.366;5.212;2023-02-15T18:06:40;5.20;99.90
55693;DHT22;41590;53.366;5.212;2023-02-15T18:09:31;5.80;99.90
55693;DHT22;41590;53.366;5.212;2023-02-15T18:12:29;6.20;99.90
55693;DHT22;41590;53.366;5.212;2023-02-15T18:15:05;5.30;99.90
55693;DHT22;41590;53.366;5.212;2023-02-15T18:17:46;5.60;99.90
55693;DHT22;41590;53.366;5.212;2023-02-15T18:20:33;5.20;99.90
55693;DHT22;41590;53.366;5.212;2023-02-15T18:23:11;6.20;99.90
55693;DHT22;41590;53.366;5.212;2023-02-15T18:26:11;5.40;99.90
55693;DHT22;41590;53.366;5.212;2023-02-15T18:28:41;6.20;99.90
55693;DHT22;41590;53.366;5.212;2023-02-15T18:31:24;6.40;99.90
55693;DHT22;41590;53.366;5.212;2023-02-15T18:33:58;6.20;99.90
55693;DHT22;41590;53.366;5.212;2023-02-15T18:36:43;5.50;99.90
55693;DHT22;41590;53.366;5.212;2023-02-15T18:42:30;6.30;99.90
55693;DHT22;41590;53.366;5.212;2023-02-15T18:45:00;5.60;99.90
55693;DHT22;41590;53.366;5.212;2023-02-15T18:47:38;5.60;99.90
55693;DHT22;41590;53.366;5.212;2023-02-15T18:50:14;6.50;99.90
55693;DHT22;41590;53.366;5.212;2023-02-15T18:52:58;5.50;99.90
55693;DHT22;41590;53.366;5.212;2023-02-15T18:58:48;6.20;99.90
55693;DHT22;41590;53.366;5.212;2023-02-15T19:01:20;5.40;99.90
55693;DHT22;41590;53.366;5.212;2023-02-15T19:04:11;6.00;99.90
55693;DHT22;41590;53.366;5.212;2023-02-15T19:07:07;6.00;99.90
55693;DHT22;41590;53.366;5.212;2023-02-15T19:09:55;6.10;99.90
55693;DHT22;41590;53.366;5.212;2023-02-15T19:16:33;5.50;99.90
55693;DHT22;41590;53.366;5.212;2023-02-15T19:19:29;5.30;99.90
55693;DHT22;41590;53.366;5.212;2023-02-15T19:25:28;5.30;99.90
55693;DHT22;41590;53.366;5.212;2023-02-15T19:28:04;5.50;99.90
55693;DHT22;41590;53.366;5.212;2023-02-15T19:30:38;5.20;99.90
55693;DHT22;41590;53.366;5.212;2023-02-15T19:33:03;5.90;99.90
55693;DHT22;41590;53.366;5.212;2023-02-15T19:35:56;5.30;99.90
55693;DHT22;41590;53.366;5.212;2023-02-15T19:38:33;5.90;99.90
55693;DHT22;41590;53.366;5.212;2023-02-15T19:41:50;5.70;99.90
55693;DHT22;41590;53.366;5.212;2023-02-15T19:44:27;5.30;99.90
55693;DHT22;41590;53.366;5.212;2023-02-15T19:50:01;5.90;99.90
55693;DHT22;41590;53.366;5.212;2023-02-15T19:56:23;4.90;99.90
55693;DHT22;41590;53.366;5.212;2023-02-15T19:58:50;5.70;99.90
55693;DHT22;41590;53.366;5.212;2023-02-15T20:01:35;5.80;99.90
55693;DHT22;41590;53.366;5.212;2023-02-15T20:07:44;5.70;99.90
55693;DHT22;41590;53.366;5.212;2023-02-15T20:10:31;5.20;99.90
55693;DHT22;41590;53.366;5.212;2023-02-15T20:13:00;5.10;99.90
55693;DHT22;41590;53.366;5.212;2023-02-15T20:15:33;5.70;99.90
55693;DHT22;41590;53.366;5.212;2023-02-15T20:18:02;5.80;99.90
55693;DHT22;41590;53.366;5.212;2023-02-15T20:20:51;5.10;99.90
55693;DHT22;41590;53.366;5.212;2023-02-15T20:23:32;5.20;99.90
55693;DHT22;41590;53.366;5.212;2023-02-15T20:26:24;5.10;99.90
55693;DHT22;41590;53.366;5.212;2023-02-15T20:28:58;5.80;99.90
55693;DHT22;41590;53.366;5.212;2023-02-15T20:31:34;4.90;99.90
55693;DHT22;41590;53.366;5.212;2023-02-15T20:34:03;5.10;99.90
55693;DHT22;41590;53.366;5.212;2023-02-15T20:36:40;5.30;99.90
55693;DHT22;41590;53.366;5.212;2023-02-15T20:39:15;5.20;99.90
55693;DHT22;41590;53.366;5.212;2023-02-15T20:41:57;5.20;99.90
55693;DHT22;41590;53.366;5.212;2023-02-15T20:44:43;5.00;99.90
55693;DHT22;41590;53.366;5.212;2023-02-15T20:47:18;5.40;99.90
55693;DHT22;41590;53.366;5.212;2023-02-15T20:49:45;5.80;99.90
55693;DHT22;41590;53.366;5.212;2023-02-15T20:52:42;4.90;99.90
55693;DHT22;41590;53.366;5.212;2023-02-15T20:55:23;4.90;99.90
55693;DHT22;41590;53.366;5.212;2023-02-15T21:01:16;5.00;99.90
55693;DHT22;41590;53.366;5.212;2023-02-15T21:07:32;4.80;99.90
55693;DHT22;41590;53.366;5.212;2023-02-15T21:09:59;5.10;99.90
55693;DHT22;41590;53.366;5.212;2023-02-15T21:16:01;4.70;99.90
55693;DHT22;41590;53.366;5.212;2023-02-15T21:18:32;4.70;99.90
55693;DHT22;41590;53.366;5.212;2023-02-15T21:21:00;4.70;99.90
55693;DHT22;41590;53.366;5.212;2023-02-15T21:23:48;5.10;99.90
55693;DHT22;41590;53.366;5.212;2023-02-15T21:26:22;4.80;99.90
55693;DHT22;41590;53.366;5.212;2023-02-15T21:28:50;5.40;99.90
55693;DHT22;41590;53.366;5.212;2023-02-15T21:31:21;4.50;99.90
55693;DHT22;41590;53.366;5.212;2023-02-15T21:34:06;5.10;99.90
55693;DHT22;41590;53.366;5.212;2023-02-15T21:43:23;5.40;99.90
55693;DHT22;41590;53.366;5.212;2023-02-15T21:46:17;4.50;99.90
55693;DHT22;41590;53.366;5.212;2023-02-15T21:49:03;4.30;99.90
55693;DHT22;41590;53.366;5.212;2023-02-15T21:51:34;5.20;99.90
55693;DHT22;41590;53.366;5.212;2023-02-15T21:54:21;5.30;99.90
55693;DHT22;41590;53.366;5.212;2023-02-15T21:56:51;5.50;99.90
55693;DHT22;41590;53.366;5.212;2023-02-15T21:59:37;4.30;99.90
55693;DHT22;41590;53.366;5.212;2023-02-15T22:02:28;4.30;99.90
55693;DHT22;41590;53.366;5.212;2023-02-15T22:05:12;4.30;99.90
55693;DHT22;41590;53.366;5.212;2023-02-15T22:07:41;5.40;99.90
55693;DHT22;41590;53.366;5.212;2023-02-15T22:10:30;5.10;99.90
55693;DHT22;41590;53.366;5.212;2023-02-15T22:13:30;4.80;99.90
55693;DHT22;41590;53.366;5.212;2023-02-15T22:19:10;5.40;99.90
55693;DHT22;41590;53.366;5.212;2023-02-15T22:25:43;4.40;99.90
55693;DHT22;41590;53.366;5.212;2023-02-15T22:28:14;5.00;99.90
55693;DHT22;41590;53.366;5.212;2023-02-15T22:30:43;4.50;99.90
55693;DHT22;41590;53.366;5.212;2023-02-15T22:33:26;5.40;99.90
55693;DHT22;41590;53.366;5.212;2023-02-15T22:35:53;4.90;99.90
55693;DHT22;41590;53.366;5.212;2023-02-15T22:38:21;4.90;99.90
55693;DHT22;41590;53.366;5.212;2023-02-15T22:41:02;5.50;99.90
55693;DHT22;41590;53.366;5.212;2023-02-15T22:43:53;5.20;99.90
55693;DHT22;41590;53.366;5.212;2023-02-15T22:46:33;4.20;99.90
55693;DHT22;41590;53.366;5.212;2023-02-15T22:56:35;5.40;99.90
